Time;durP1;ratioP1;P1;durP2;ratioP2;P2;SDS_P1;SDS_P2;PMS_P1;PMS_P2;Temp;Humidity;BMP_temperature;BMP_pressure;BME280_temperature;BME280_humidity;BME280_pressure;Samples;Min_cycle;Max_cycle;Signal;HPM_P1;HPM_P2
2021/01/18 00:03:44;;;;;;;10.27;9.37;;;3.90;99.90;;;;;;10349894;28;20202;-85
2021/01/18 00:08:46;;;;;;;9.07;8.30;;;3.90;99.90;;;;;;10368697;28;20234;-82
2021/01/18 00:13:54;;;;;;;9.40;8.63;;;4.00;99.90;;;;;;10337286;28;20237;-86
2021/01/18 00:19:17;;;;;;;9.20;8.30;;;4.10;99.90;;;;;;10356639;28;20230;-82
2021/01/18 00:24:19;;;;;;;8.67;7.97;;;4.00;99.90;;;;;;10374493;28;20228;-86
2021/01/18 00:29:23;;;;;;;9.47;8.50;;;4.10;99.90;;;;;;10356956;28;20226;-85
2021/01/18 00:34:26;;;;;;;9.10;8.30;;;4.00;99.90;;;;;;10377890;28;20202;-86
2021/01/18 00:39:49;;;;;;;;;;;;;;;;;;;;;
2021/01/18 00:44:51;;;;;;;8.90;8.20;;;3.90;99.90;;;;;;10347473;28;20226;-85
2021/01/18 00:49:58;;;;;;;8.80;8.10;;;3.90;99.90;;;;;;10357701;28;20249;-85
2021/01/18 00:55:00;;;;;;;8.83;8.03;;;3.90;99.90;;;;;;10346997;28;20273;-85
2021/01/18 01:00:22;;;;;;;13.73;12.30;;;3.90;99.90;;;;;;10318116;28;20270;-86
2021/01/18 01:05:28;;;;;;;10.10;9.30;;;3.90;99.90;;;;;;10298604;28;20216;-87
2021/01/18 01:10:31;;;;;;;8.57;7.97;;;3.90;99.90;;;;;;10339253;28;20588;-85
2021/01/18 01:15:34;;;;;;;8.00;7.43;;;3.90;99.90;;;;;;10348863;28;20651;-85
2021/01/18 01:20:44;;;;;;;8.03;7.43;;;3.90;99.90;;;;;;10345137;28;20210;-85
2021/01/18 01:25:54;;;;;;;8.90;8.17;;;3.90;99.90;;;;;;10355580;28;20230;-87
2021/01/18 01:30:59;;;;;;;7.20;6.70;;;3.90;99.90;;;;;;10341339;28;20233;-84
2021/01/18 01:36:04;;;;;;;7.80;7.20;;;3.80;99.90;;;;;;10339923;28;20253;-84
2021/01/18 01:41:05;;;;;;;7.87;7.27;;;3.70;99.90;;;;;;10385597;28;20206;-86
2021/01/18 01:46:08;;;;;;;7.37;6.90;;;3.70;99.90;;;;;;10400769;28;20268;-87
2021/01/18 01:51:10;;;;;;;7.50;7.00;;;3.60;99.90;;;;;;10376033;28;20673;-86
2021/01/18 01:56:13;;;;;;;6.70;6.30;;;3.60;99.90;;;;;;10387963;28;20226;-86
2021/01/18 02:01:14;;;;;;;7.70;7.20;;;3.70;99.90;;;;;;10389217;28;20232;-86
2021/01/18 02:06:18;;;;;;;6.73;6.23;;;3.70;99.90;;;;;;10413332;28;20222;-86
2021/01/18 02:11:20;;;;;;;7.23;6.73;;;3.70;99.90;;;;;;10362438;28;20198;-85
2021/01/18 02:16:28;;;;;;;7.00;6.50;;;3.80;99.90;;;;;;10343913;28;20261;-85
2021/01/18 02:22:03;;;;;;;7.20;6.70;;;3.80;99.90;;;;;;10372678;28;20203;-87
2021/01/18 02:27:21;;;;;;;7.33;6.83;;;3.80;99.90;;;;;;10375301;28;20238;-85
2021/01/18 02:32:50;;;;;;;7.30;6.77;;;3.90;99.90;;;;;;10376041;28;20288;-85
2021/01/18 02:38:13;;;;;;;7.53;7.03;;;3.80;99.90;;;;;;10362598;28;20222;-86
2021/01/18 02:43:19;;;;;;;8.03;7.40;;;3.90;99.90;;;;;;10355020;28;20302;-87
2021/01/18 02:48:22;;;;;;;8.33;7.77;;;3.90;99.90;;;;;;10375626;28;20223;-86
2021/01/18 02:53:24;;;;;;;8.27;7.67;;;4.00;99.90;;;;;;10390169;28;20230;-86
2021/01/18 02:58:31;;;;;;;8.80;8.10;;;4.00;99.90;;;;;;10416412;28;20226;-85
2021/01/18 03:03:43;;;;;;;9.97;9.23;;;3.90;99.90;;;;;;10350755;28;20294;-86
2021/01/18 03:08:52;;;;;;;10.27;9.47;;;3.90;99.90;;;;;;10378922;28;20668;-85
2021/01/18 03:13:58;;;;;;;9.80;9.10;;;3.90;99.90;;;;;;10398836;28;20213;-86
2021/01/18 03:19:03;;;;;;;12.50;11.30;;;3.90;99.90;;;;;;10374687;28;20322;-87
2021/01/18 03:24:07;;;;;;;12.13;11.10;;;3.90;99.90;;;;;;10369166;28;20214;-85
2021/01/18 03:29:09;;;;;;;12.63;10.83;;;3.90;99.90;;;;;;10387944;28;20689;-85
2021/01/18 03:34:11;;;;;;;12.40;11.30;;;3.90;99.90;;;;;;10402041;28;20234;-85
2021/01/18 03:39:13;;;;;;;12.03;10.93;;;3.90;99.90;;;;;;10422682;28;20285;-86
2021/01/18 03:44:15;;;;;;;11.93;10.90;;;3.90;99.90;;;;;;10405764;28;20202;-85
2021/01/18 03:49:16;;;;;;;13.87;12.80;;;3.90;99.90;;;;;;10422269;28;20229;-85
2021/01/18 03:54:19;;;;;;;12.40;11.40;;;3.90;99.90;;;;;;10400063;28;20291;-85
2021/01/18 03:59:20;;;;;;;12.00;11.00;;;3.90;99.90;;;;;;10373271;28;20592;-85
2021/01/18 04:04:22;;;;;;;12.00;10.90;;;3.90;99.90;;;;;;10408869;28;20684;-85
2021/01/18 04:09:24;;;;;;;12.93;11.60;;;3.90;99.90;;;;;;10428323;28;20654;-85
2021/01/18 04:14:26;;;;;;;13.37;12.27;;;3.90;99.90;;;;;;10404076;28;20202;-87
2021/01/18 04:19:27;;;;;;;13.60;12.50;;;3.90;99.90;;;;;;10397596;28;20260;-85
2021/01/18 04:24:30;;;;;;;13.07;12.07;;;4.00;99.90;;;;;;10383563;28;20198;-85
2021/01/18 04:29:32;;;;;;;13.90;12.47;;;4.00;99.90;;;;;;10386127;28;20696;-88
2021/01/18 04:34:33;;;;;;;13.10;12.10;;;4.00;99.90;;;;;;10364125;28;20245;-84
2021/01/18 04:39:36;;;;;;;12.60;11.50;;;4.00;99.90;;;;;;10363616;28;20322;-86
2021/01/18 04:44:38;;;;;;;13.23;12.03;;;4.00;99.90;;;;;;10422761;28;20201;-84
2021/01/18 04:49:40;;;;;;;15.37;14.07;;;4.00;99.90;;;;;;10403747;28;20315;-85
2021/01/18 04:54:54;;;;;;;13.23;12.13;;;4.10;99.90;;;;;;10370345;28;20213;-86
2021/01/18 05:00:03;;;;;;;13.47;12.27;;;4.10;99.90;;;;;;10364042;28;20238;-84
2021/01/18 05:05:14;;;;;;;13.50;12.30;;;4.10;99.90;;;;;;10384132;28;20211;-87
2021/01/18 05:10:27;;;;;;;11.27;10.17;;;4.00;99.90;;;;;;10311054;23;20227;-79
2021/01/18 05:15:29;;;;;;;12.43;11.30;;;3.90;99.90;;;;;;10292236;28;20208;-79
2021/01/18 05:20:31;;;;;;;14.47;13.10;;;3.80;99.90;;;;;;10282014;28;20240;-79
2021/01/18 05:25:34;;;;;;;11.33;10.23;;;3.70;99.90;;;;;;10309450;28;20231;-79
2021/01/18 05:30:38;;;;;;;12.57;11.47;;;3.60;99.90;;;;;;10319415;28;20707;-79
2021/01/18 05:35:45;;;;;;;13.83;12.50;;;3.60;99.90;;;;;;10308091;28;20570;-79
2021/01/18 05:40:49;;;;;;;13.90;12.60;;;3.50;99.90;;;;;;10315309;28;20261;-79
2021/01/18 05:46:02;;;;;;;13.17;12.17;;;3.50;99.90;;;;;;10333078;28;20239;-79
2021/01/18 05:51:04;;;;;;;14.40;13.03;;;3.40;99.90;;;;;;10311860;28;20577;-79
2021/01/18 05:56:17;;;;;;;13.17;11.77;;;3.50;99.90;;;;;;10301534;28;20220;-79
2021/01/18 06:01:34;;;;;;;14.67;13.37;;;3.50;99.90;;;;;;10319297;28;20208;-79
2021/01/18 06:06:36;;;;;;;15.73;12.97;;;3.50;99.90;;;;;;10281012;28;20264;-80
2021/01/18 06:11:38;;;;;;;14.97;13.47;;;3.60;99.90;;;;;;10264548;29;20211;-79
2021/01/18 06:16:40;;;;;;;13.60;12.30;;;3.60;99.90;;;;;;10246655;28;20220;-80
2021/01/18 06:21:42;;;;;;;13.33;12.23;;;3.70;99.90;;;;;;10245593;28;20208;-79
2021/01/18 06:26:45;;;;;;;12.50;11.40;;;3.70;99.90;;;;;;10231639;28;20694;-79
2021/01/18 06:31:47;;;;;;;13.03;12.00;;;3.80;99.90;;;;;;10260123;28;20215;-79
2021/01/18 06:36:49;;;;;;;13.47;12.17;;;3.70;99.90;;;;;;10241126;28;20616;-79
2021/01/18 06:41:56;;;;;;;12.60;11.20;;;3.70;99.90;;;;;;10260413;28;20236;-79
2021/01/18 06:46:58;;;;;;;12.50;11.30;;;3.70;99.90;;;;;;10249830;29;20271;-79
2021/01/18 06:52:01;;;;;;;12.60;11.47;;;3.70;99.90;;;;;;10254487;28;20219;-79
2021/01/18 06:57:19;;;;;;;11.60;10.50;;;3.70;99.90;;;;;;10269124;28;20282;-79
2021/01/18 07:02:27;;;;;;;11.57;10.37;;;3.70;99.90;;;;;;10246776;28;20203;-79
2021/01/18 07:07:30;;;;;;;8.57;7.73;;;3.70;99.90;;;;;;10254997;28;20283;-79
2021/01/18 07:12:33;;;;;;;9.27;8.57;;;3.70;99.90;;;;;;10314051;28;20774;-80
2021/01/18 07:17:53;;;;;;;9.87;8.67;;;3.80;99.90;;;;;;10301534;28;20302;-79
2021/01/18 07:23:18;;;;;;;9.53;8.63;;;3.80;99.90;;;;;;10294652;28;20258;-79
2021/01/18 07:28:20;;;;;;;10.57;8.00;;;3.90;99.90;;;;;;10308181;28;20321;-80
2021/01/18 07:33:25;;;;;;;9.70;8.07;;;3.90;99.90;;;;;;10307446;28;20203;-80
2021/01/18 07:38:34;;;;;;;7.13;6.53;;;3.90;99.90;;;;;;10321719;28;20266;-79
2021/01/18 07:43:38;;;;;;;8.73;7.87;;;3.90;99.90;;;;;;10304987;28;20215;-79
2021/01/18 07:48:40;;;;;;;8.23;7.43;;;4.00;99.90;;;;;;10298797;28;20273;-80
2021/01/18 07:53:41;;;;;;;9.40;8.50;;;4.10;99.90;;;;;;10282366;28;20224;-79
2021/01/18 07:58:55;;;;;;;9.50;8.60;;;4.20;99.90;;;;;;10279117;28;20291;-79
2021/01/18 08:04:18;;;;;;;8.60;7.80;;;4.20;99.90;;;;;;10297010;28;20686;-79
2021/01/18 08:09:29;;;;;;;9.97;8.73;;;4.20;99.90;;;;;;10265081;28;641936;-79
2021/01/18 08:14:31;;;;;;;8.20;7.43;;;4.20;99.90;;;;;;10309931;28;21140;-79
2021/01/18 08:19:33;;;;;;;8.73;8.03;;;4.20;99.90;;;;;;10282384;28;20318;-79
2021/01/18 08:25:03;;;;;;;8.00;7.30;;;4.20;99.90;;;;;;10333304;28;20211;-79
2021/01/18 08:30:39;;;;;;;7.97;7.47;;;4.20;99.90;;;;;;10333274;28;20314;-80
2021/01/18 08:35:43;;;;;;;8.70;6.83;;;4.30;99.90;;;;;;10333429;28;20227;-80
2021/01/18 08:40:48;;;;;;;8.53;7.50;;;4.30;99.90;;;;;;10334266;28;20263;-79
2021/01/18 08:45:52;;;;;;;7.50;6.90;;;4.30;99.90;;;;;;10321788;28;20211;-79
2021/01/18 08:50:54;;;;;;;8.10;7.40;;;4.30;99.90;;;;;;10324976;28;20207;-79
2021/01/18 08:55:57;;;;;;;7.87;7.17;;;4.40;99.90;;;;;;10304026;28;20223;-79
2021/01/18 09:01:00;;;;;;;8.03;7.33;;;4.40;99.90;;;;;;10305352;28;20371;-79
2021/01/18 09:06:02;;;;;;;6.47;5.87;;;4.50;99.90;;;;;;10304794;28;20195;-79
2021/01/18 09:11:09;;;;;;;9.10;8.30;;;4.50;99.90;;;;;;10331797;28;20199;-79
2021/01/18 09:16:13;;;;;;;8.87;8.07;;;4.50;99.90;;;;;;10317926;28;20215;-79
2021/01/18 09:21:17;;;;;;;8.20;7.60;;;4.50;99.90;;;;;;10294376;28;20211;-79
2021/01/18 09:26:21;;;;;;;8.77;8.07;;;4.50;99.90;;;;;;10319872;28;20222;-79
2021/01/18 09:31:24;;;;;;;9.60;8.67;;;4.60;99.90;;;;;;10328384;28;20698;-79
2021/01/18 09:36:27;;;;;;;8.50;7.80;;;4.70;99.90;;;;;;10331980;28;20222;-79
2021/01/18 09:41:29;;;;;;;8.00;7.30;;;4.70;99.90;;;;;;10344786;28;20203;-79
2021/01/18 09:46:36;;;;;;;7.90;7.10;;;4.80;99.90;;;;;;10321802;28;20611;-79
2021/01/18 09:51:38;;;;;;;8.07;7.43;;;4.80;99.90;;;;;;10267148;28;20200;-79
2021/01/18 09:56:42;;;;;;;8.97;8.27;;;4.80;99.90;;;;;;10300278;28;20220;-79
2021/01/18 10:01:48;;;;;;;8.03;7.30;;;4.90;99.90;;;;;;10301094;28;20295;-79
2021/01/18 10:07:01;;;;;;;6.80;6.20;;;5.00;99.90;;;;;;10287489;28;20263;-79
2021/01/18 10:12:05;;;;;;;6.63;6.13;;;5.00;99.90;;;;;;10282186;28;20206;-79
2021/01/18 10:17:09;;;;;;;5.50;5.00;;;4.90;99.90;;;;;;10282949;28;20689;-79
2021/01/18 10:22:19;;;;;;;6.07;5.00;;;4.80;99.90;;;;;;10278545;28;20227;-79
2021/01/18 10:27:25;;;;;;;6.33;5.83;;;4.80;99.90;;;;;;10298805;28;20230;-79
2021/01/18 10:32:39;;;;;;;6.70;6.23;;;4.80;99.90;;;;;;10275696;28;20703;-79
2021/01/18 10:37:41;;;;;;;8.20;5.67;;;4.90;99.90;;;;;;10281686;28;20234;-79
2021/01/18 10:42:51;;;;;;;6.63;6.03;;;4.90;99.90;;;;;;10326577;28;20273;-80
2021/01/18 10:47:58;;;;;;;7.10;6.57;;;5.00;99.90;;;;;;10325616;28;20223;-79
2021/01/18 10:53:10;;;;;;;5.80;5.30;;;5.10;99.90;;;;;;10306372;28;20750;-79
2021/01/18 10:58:12;;;;;;;5.33;4.93;;;5.30;99.90;;;;;;10312943;28;20782;-79
2021/01/18 11:03:22;;;;;;;6.60;4.83;;;5.40;99.90;;;;;;10329460;28;20215;-81
2021/01/18 11:08:31;;;;;;;6.47;5.87;;;5.50;99.90;;;;;;10329960;28;20239;-79
2021/01/18 11:13:32;;;;;;;7.27;6.67;;;5.50;99.90;;;;;;10287422;28;20272;-79
2021/01/18 11:18:35;;;;;;;6.03;5.43;;;5.50;99.90;;;;;;10303183;28;20227;-80
2021/01/18 11:23:37;;;;;;;5.30;4.83;;;5.50;99.90;;;;;;10342020;28;20568;-80
2021/01/18 11:28:39;;;;;;;5.80;5.30;;;5.50;99.90;;;;;;10303773;28;20243;-80
2021/01/18 11:33:41;;;;;;;5.90;5.40;;;5.40;99.90;;;;;;10305306;28;20251;-80
2021/01/18 11:38:43;;;;;;;5.30;4.90;;;5.50;99.90;;;;;;10310457;28;20223;-81
2021/01/18 11:43:47;;;;;;;6.10;5.60;;;5.60;99.90;;;;;;10319879;28;20754;-80
2021/01/18 11:48:49;;;;;;;6.17;5.60;;;5.60;99.90;;;;;;10284256;28;20318;-79
2021/01/18 11:53:51;;;;;;;7.30;6.23;;;5.70;99.90;;;;;;10320249;28;20266;-80
2021/01/18 11:58:53;;;;;;;6.90;6.30;;;5.70;99.90;;;;;;10303978;28;20227;-80
2021/01/18 12:03:57;;;;;;;6.30;4.40;;;5.80;99.90;;;;;;10298421;28;20402;-79
2021/01/18 12:08:58;;;;;;;8.20;4.83;;;5.90;99.90;;;;;;10299354;28;20232;-80
2021/01/18 12:14:00;;;;;;;4.73;4.33;;;5.90;99.90;;;;;;10260574;28;20242;-80
2021/01/18 12:19:03;;;;;;;4.60;4.30;;;5.90;99.90;;;;;;10322517;28;20521;-79
2021/01/18 12:24:06;;;;;;;4.03;3.73;;;6.00;99.90;;;;;;10313214;28;20269;-80
2021/01/18 12:29:07;;;;;;;5.73;4.20;;;6.00;99.90;;;;;;10325169;28;20310;-80
2021/01/18 12:34:10;;;;;;;4.87;4.47;;;6.10;99.90;;;;;;10327803;28;20207;-80
2021/01/18 12:39:12;;;;;;;5.00;4.10;;;6.10;99.90;;;;;;10326705;28;20235;-80
2021/01/18 12:44:13;;;;;;;4.30;3.90;;;6.20;99.90;;;;;;10319034;28;20634;-80
2021/01/18 12:49:16;;;;;;;7.07;4.47;;;6.30;99.90;;;;;;10316873;28;20235;-80
2021/01/18 12:54:18;;;;;;;6.23;4.60;;;6.40;99.90;;;;;;10322590;28;20625;-80
2021/01/18 12:59:20;;;;;;;9.60;5.53;;;6.50;99.90;;;;;;10321216;28;20312;-80
2021/01/18 13:04:22;;;;;;;6.53;5.10;;;6.50;99.90;;;;;;10290676;28;20207;-79
2021/01/18 13:09:24;;;;;;;5.97;4.93;;;6.50;99.90;;;;;;10284102;28;20227;-80
2021/01/18 13:14:26;;;;;;;5.77;5.13;;;6.50;99.90;;;;;;10304284;28;20211;-80
2021/01/18 13:19:28;;;;;;;5.93;4.40;;;6.50;99.90;;;;;;10322079;28;20290;-80
2021/01/18 13:24:30;;;;;;;4.43;3.23;;;6.40;99.90;;;;;;10309284;28;20206;-79
2021/01/18 13:29:32;;;;;;;4.80;3.30;;;6.20;99.90;;;;;;10293306;28;20239;-80
2021/01/18 13:34:34;;;;;;;5.97;4.50;;;6.20;99.90;;;;;;10323587;28;20209;-80
2021/01/18 13:39:36;;;;;;;6.80;3.87;;;6.20;99.90;;;;;;10325326;28;20237;-80
2021/01/18 13:44:37;;;;;;;4.67;3.13;;;6.20;99.90;;;;;;10302829;28;20315;-80
2021/01/18 13:49:40;;;;;;;3.80;3.50;;;6.00;99.90;;;;;;10301590;28;20597;-79
2021/01/18 13:54:42;;;;;;;5.03;3.43;;;6.10;99.90;;;;;;10300228;28;20210;-79
2021/01/18 13:59:43;;;;;;;4.03;3.70;;;6.10;99.90;;;;;;10319956;28;20223;-80
2021/01/18 14:04:46;;;;;;;3.53;3.20;;;6.20;99.90;;;;;;10285983;28;20223;-80
2021/01/18 14:09:49;;;;;;;3.93;3.67;;;6.20;99.90;;;;;;10271719;28;20302;-79
2021/01/18 14:14:50;;;;;;;5.40;4.33;;;6.30;99.90;;;;;;10311614;28;20330;-80
2021/01/18 14:19:53;;;;;;;3.80;3.50;;;6.20;99.90;;;;;;10291338;28;20301;-80
2021/01/18 14:24:55;;;;;;;5.10;4.07;;;6.20;99.90;;;;;;10283467;28;20234;-80
2021/01/18 14:29:56;;;;;;;5.67;3.47;;;6.10;99.90;;;;;;10331462;28;20219;-80
2021/01/18 14:34:59;;;;;;;3.50;3.00;;;6.10;99.90;;;;;;10333332;28;20215;-79
2021/01/18 14:40:04;;;;;;;6.17;3.90;;;6.00;99.90;;;;;;10330759;28;20574;-80
2021/01/18 14:45:08;;;;;;;3.80;3.50;;;5.90;99.90;;;;;;10321532;28;20219;-80
2021/01/18 14:50:12;;;;;;;5.90;3.87;;;5.90;99.90;;;;;;10288457;28;20224;-80
2021/01/18 14:55:14;;;;;;;7.27;4.57;;;5.90;99.90;;;;;;10309643;28;20258;-79
2021/01/18 15:00:17;;;;;;;3.97;3.57;;;5.80;99.90;;;;;;10311951;28;20231;-80
2021/01/18 15:05:20;;;;;;;3.97;3.00;;;5.70;99.90;;;;;;10318592;28;20234;-79
2021/01/18 15:10:21;;;;;;;4.93;3.43;;;5.70;99.90;;;;;;10325239;28;20282;-79
2021/01/18 15:15:23;;;;;;;4.50;2.50;;;5.60;99.90;;;;;;10310548;28;20479;-80
2021/01/18 15:20:26;;;;;;;2.73;2.63;;;5.60;99.90;;;;;;10275027;28;20682;-80
2021/01/18 15:25:27;;;;;;;5.00;3.10;;;5.50;99.90;;;;;;10315869;28;20672;-79
2021/01/18 15:30:29;;;;;;;4.17;3.17;;;5.40;99.90;;;;;;10325672;28;20219;-79
2021/01/18 15:35:35;;;;;;;4.00;3.33;;;5.30;99.90;;;;;;10312892;28;20360;-80
2021/01/18 15:40:37;;;;;;;5.13;2.77;;;5.40;99.90;;;;;;10292033;28;20264;-79
2021/01/18 15:45:38;;;;;;;3.37;3.00;;;5.30;99.90;;;;;;10270229;28;20204;-79
2021/01/18 15:50:41;;;;;;;6.93;3.80;;;5.20;99.90;;;;;;10292277;28;20247;-79
2021/01/18 15:55:43;;;;;;;4.57;3.93;;;5.20;99.90;;;;;;10281752;28;20231;-79
2021/01/18 16:00:44;;;;;;;4.77;4.37;;;5.20;99.90;;;;;;10280799;28;20319;-81
2021/01/18 16:05:47;;;;;;;4.03;3.63;;;5.20;99.90;;;;;;10275771;28;20203;-81
2021/01/18 16:10:49;;;;;;;3.90;3.50;;;5.20;99.90;;;;;;10277945;28;20227;-80
2021/01/18 16:15:50;;;;;;;4.03;3.47;;;5.20;99.90;;;;;;10279940;28;20204;-81
2021/01/18 16:20:53;;;;;;;12.13;3.80;;;5.30;99.90;;;;;;10306489;28;20262;-81
2021/01/18 16:25:54;;;;;;;5.00;4.63;;;5.30;99.90;;;;;;10311394;28;20242;-81
2021/01/18 16:30:56;;;;;;;4.73;4.10;;;5.20;99.90;;;;;;10304962;28;20211;-81
2021/01/18 16:35:59;;;;;;;4.27;3.87;;;5.20;99.90;;;;;;10318588;28;20216;-79
2021/01/18 16:41:02;;;;;;;7.20;5.80;;;5.30;99.90;;;;;;10324752;28;20231;-80
2021/01/18 16:46:04;;;;;;;4.27;3.37;;;5.20;99.90;;;;;;10304867;28;20212;-79
2021/01/18 16:51:07;;;;;;;5.17;3.90;;;5.20;99.90;;;;;;10333784;28;20753;-80
2021/01/18 16:56:08;;;;;;;3.80;3.50;;;5.20;99.90;;;;;;10288013;28;20302;-79
2021/01/18 17:01:10;;;;;;;4.27;3.87;;;5.20;99.90;;;;;;10296749;28;20696;-80
2021/01/18 17:11:17;;;;;;;3.30;3.10;;;5.10;99.90;;;;;;10246288;28;20235;-88
2021/01/18 17:16:20;;;;;;;4.53;4.10;;;5.10;99.90;;;;;;10269493;28;20223;-86
2021/01/18 17:21:22;;;;;;;4.60;4.17;;;5.10;99.90;;;;;;10257892;28;20211;-86
2021/01/18 17:26:27;;;;;;;4.70;4.20;;;5.00;99.90;;;;;;10226910;28;20684;-84
2021/01/18 17:31:38;;;;;;;5.63;5.13;;;5.10;99.90;;;;;;10250617;28;20295;-86
2021/01/18 17:36:40;;;;;;;5.07;4.53;;;5.10;99.90;;;;;;10234077;28;20231;-86
2021/01/18 17:41:42;;;;;;;4.87;4.57;;;5.00;99.90;;;;;;10224771;28;20271;-86
2021/01/18 17:46:44;;;;;;;6.27;4.57;;;5.00;99.90;;;;;;10237706;28;20225;-85
2021/01/18 17:51:46;;;;;;;4.77;4.30;;;4.90;99.90;;;;;;10252793;28;20204;-89
2021/01/18 17:56:49;;;;;;;4.70;4.30;;;4.80;99.90;;;;;;10249377;28;20291;-85
2021/01/18 18:01:51;;;;;;;4.27;3.97;;;4.80;99.90;;;;;;10231440;28;20212;-88
2021/01/18 18:06:52;;;;;;;5.00;4.50;;;4.90;99.90;;;;;;10239126;28;20291;-85
2021/01/18 18:11:55;;;;;;;5.30;4.80;;;4.80;99.90;;;;;;10231952;28;20215;-87
2021/01/18 18:16:57;;;;;;;4.67;4.27;;;4.90;99.90;;;;;;10243895;28;20677;-86
2021/01/18 18:21:59;;;;;;;4.30;3.90;;;4.90;99.90;;;;;;10241770;28;20744;-86
2021/01/18 18:27:06;;;;;;;5.00;4.60;;;4.90;99.90;;;;;;10245717;28;20284;-85
2021/01/18 18:32:43;;;;;;;5.13;4.63;;;4.90;99.90;;;;;;10251614;28;20213;-88
2021/01/18 18:38:36;;;;;;;5.60;5.07;;;4.80;99.90;;;;;;10227676;28;20232;-87
2021/01/18 18:43:57;;;;;;;4.47;4.07;;;4.80;99.90;;;;;;10251834;28;20564;-86
2021/01/18 18:48:59;;;;;;;7.20;5.70;;;4.80;99.90;;;;;;10258812;28;20226;-86
2021/01/18 18:54:01;;;;;;;5.60;5.03;;;4.80;99.90;;;;;;10264466;28;20207;-85
2021/01/18 18:59:17;;;;;;;5.40;4.90;;;4.90;99.90;;;;;;10236133;28;20236;-86
2021/01/18 19:04:19;;;;;;;6.03;5.27;;;4.90;99.90;;;;;;10253354;28;20679;-87
2021/01/18 19:09:26;;;;;;;4.90;4.50;;;4.90;99.90;;;;;;10250473;28;20239;-87
2021/01/18 19:14:31;;;;;;;5.13;4.73;;;5.00;99.90;;;;;;10248412;28;20267;-87
2021/01/18 19:19:51;;;;;;;4.60;4.20;;;5.00;99.90;;;;;;10238598;28;20288;-86
2021/01/18 19:24:53;;;;;;;5.23;4.83;;;5.00;99.90;;;;;;10256474;28;20211;-85
2021/01/18 19:29:56;;;;;;;5.03;4.27;;;4.90;99.90;;;;;;10259051;28;20223;-87
2021/01/18 19:34:58;;;;;;;4.87;4.40;;;4.80;99.90;;;;;;10278422;28;20218;-87
2021/01/18 19:40:00;;;;;;;4.13;3.73;;;4.70;99.90;;;;;;10264686;28;20228;-87
2021/01/18 19:45:03;;;;;;;4.93;4.53;;;4.60;99.80;;;;;;10247561;28;20201;-87
2021/01/18 19:50:06;;;;;;;4.13;3.73;;;4.50;99.90;;;;;;10260751;28;20612;-86
2021/01/18 19:55:12;;;;;;;4.40;3.93;;;4.50;99.90;;;;;;10234246;28;20208;-86
2021/01/18 20:00:15;;;;;;;4.20;3.90;;;4.40;99.90;;;;;;10269209;28;20224;-86
2021/01/18 20:05:17;;;;;;;4.30;3.90;;;4.40;99.90;;;;;;10264188;28;20887;-85
2021/01/18 20:10:19;;;;;;;5.00;3.83;;;4.30;99.80;;;;;;10239209;28;20240;-85
2021/01/18 20:15:22;;;;;;;6.40;4.47;;;4.30;99.90;;;;;;10244473;28;20215;-87
2021/01/18 20:20:24;;;;;;;3.87;3.40;;;4.20;99.80;;;;;;10238183;28;20312;-88
2021/01/18 20:25:26;;;;;;;5.70;4.20;;;4.30;99.90;;;;;;10262001;28;20231;-87
2021/01/18 20:30:31;;;;;;;6.33;4.83;;;4.30;99.90;;;;;;10257121;28;20315;-86
2021/01/18 20:35:34;;;;;;;4.17;3.87;;;4.30;99.90;;;;;;10276941;28;20215;-86
2021/01/18 20:40:37;;;;;;;4.03;3.73;;;4.30;99.90;;;;;;10250513;28;20239;-86
2021/01/18 20:45:40;;;;;;;4.63;4.23;;;4.40;99.90;;;;;;10254174;28;20216;-87
2021/01/18 20:50:42;;;;;;;4.57;4.20;;;4.30;99.90;;;;;;10256986;28;20223;-86
2021/01/18 20:55:52;;;;;;;4.87;4.53;;;4.30;99.90;;;;;;10237556;28;20212;-86
2021/01/18 21:00:55;;;;;;;4.23;3.93;;;4.30;99.90;;;;;;10260881;28;20336;-86
2021/01/18 21:05:59;;;;;;;4.60;4.17;;;4.30;99.90;;;;;;10254800;28;20719;-87
2021/01/18 21:11:01;;;;;;;4.73;4.33;;;4.30;99.90;;;;;;10227634;28;20728;-86
2021/01/18 21:16:04;;;;;;;5.13;4.27;;;4.40;99.90;;;;;;10276361;28;20294;-86
2021/01/18 21:21:07;;;;;;;4.90;4.50;;;4.30;99.90;;;;;;10248524;28;20224;-87
2021/01/18 21:26:09;;;;;;;5.20;4.40;;;4.30;99.90;;;;;;10240576;28;20289;-86
2021/01/18 21:31:14;;;;;;;4.83;4.43;;;4.30;99.90;;;;;;10235998;28;20287;-86
2021/01/18 21:36:17;;;;;;;5.07;4.67;;;4.20;99.90;;;;;;10235399;28;20212;-86
2021/01/18 21:41:19;;;;;;;4.40;4.00;;;4.20;99.90;;;;;;10246613;28;20223;-87
2021/01/18 21:46:22;;;;;;;4.87;4.47;;;4.10;99.90;;;;;;10239867;28;20206;-88
2021/01/18 21:51:27;;;;;;;4.90;4.50;;;4.10;99.90;;;;;;10252492;28;20204;-87
2021/01/18 21:56:30;;;;;;;5.43;4.90;;;4.00;99.90;;;;;;10287587;28;20263;-87
2021/01/18 22:01:32;;;;;;;4.90;4.40;;;4.00;99.90;;;;;;10285445;28;20247;-90
2021/01/18 22:06:34;;;;;;;5.63;4.93;;;3.90;99.90;;;;;;10289625;28;20902;-86
2021/01/18 22:11:36;;;;;;;5.00;4.50;;;3.90;99.90;;;;;;10263983;28;20208;-86
2021/01/18 22:16:39;;;;;;;5.50;5.00;;;3.90;99.90;;;;;;10258507;28;20223;-86
2021/01/18 22:21:41;;;;;;;4.90;4.40;;;3.80;99.90;;;;;;10255564;28;20215;-87
2021/01/18 22:26:42;;;;;;;5.30;4.80;;;3.80;99.90;;;;;;10276104;28;20231;-86
2021/01/18 22:31:45;;;;;;;5.47;4.97;;;3.80;99.90;;;;;;10280468;28;20208;-87
2021/01/18 22:36:47;;;;;;;4.90;4.50;;;3.80;99.90;;;;;;10277871;28;20224;-87
2021/01/18 22:41:49;;;;;;;5.00;4.30;;;3.70;99.90;;;;;;10297205;28;20215;-86
2021/01/18 22:46:52;;;;;;;5.63;5.07;;;3.70;99.90;;;;;;10274366;28;20673;-88
2021/01/18 22:51:54;;;;;;;4.47;4.07;;;3.70;99.90;;;;;;10251070;28;20769;-86
2021/01/18 22:56:56;;;;;;;3.93;3.63;;;3.70;99.90;;;;;;10272828;28;20239;-87
2021/01/18 23:01:58;;;;;;;3.50;3.20;;;3.70;99.90;;;;;;10250234;28;20260;-85
2021/01/18 23:07:01;;;;;;;3.93;3.60;;;3.70;99.90;;;;;;10281119;28;20249;-86
2021/01/18 23:12:12;;;;;;;4.00;3.60;;;3.70;99.70;;;;;;10274253;28;20291;-86
2021/01/18 23:17:15;;;;;;;4.30;3.90;;;3.70;99.70;;;;;;10237887;28;20217;-86
2021/01/18 23:22:16;;;;;;;4.20;3.90;;;3.70;99.80;;;;;;10241116;29;20242;-87
2021/01/18 23:27:18;;;;;;;3.83;3.30;;;3.60;99.90;;;;;;10253085;28;20984;-86
2021/01/18 23:32:21;;;;;;;3.87;3.53;;;3.70;99.90;;;;;;10280505;28;20228;-87
2021/01/18 23:37:28;;;;;;;3.80;3.47;;;3.60;99.80;;;;;;10293820;28;20231;-86
2021/01/18 23:42:30;;;;;;;3.60;3.27;;;3.70;99.30;;;;;;10278750;28;20207;-85
2021/01/18 23:47:33;;;;;;;5.10;3.87;;;3.60;99.50;;;;;;10238591;28;20316;-85
2021/01/18 23:52:35;;;;;;;3.40;3.10;;;3.60;99.40;;;;;;10278811;28;20243;-87
2021/01/18 23:57:37;;;;;;;3.73;3.43;;;3.50;99.10;;;;;;10252806;28;20587;-87
